createdAt,value
2023-04-25T00:00:04.635Z,14.3
2023-04-25T00:01:13.176Z,12.7
2023-04-25T00:02:21.590Z,12.7
2023-04-25T00:03:29.924Z,12.7
2023-04-25T00:04:38.686Z,15.4
2023-04-25T00:05:46.793Z,15.4
2023-04-25T00:06:55.061Z,15.4
2023-04-25T00:08:03.594Z,14.8
2023-04-25T00:09:11.987Z,14.8
2023-04-25T00:10:20.298Z,14.8
2023-04-25T00:11:28.844Z,12.8
2023-04-25T00:12:37.171Z,12.8
2023-04-25T00:13:45.503Z,12.8
2023-04-25T00:14:54.049Z,14.1
2023-04-25T00:16:02.435Z,14.1
2023-04-25T00:17:10.697Z,14.1
2023-04-25T00:18:19.239Z,13.9
2023-04-25T00:19:27.587Z,13.9
2023-04-25T00:20:35.935Z,13.9
2023-04-25T00:21:44.463Z,13.6
2023-04-25T00:22:52.804Z,13.6
2023-04-25T00:24:01.150Z,13.6
2023-04-25T00:25:09.754Z,13.1
2023-04-25T00:26:18.066Z,13.1
2023-04-25T00:27:26.403Z,13.1
2023-04-25T00:28:34.933Z,15
2023-04-25T00:29:43.536Z,15
2023-04-25T00:30:51.877Z,15
2023-04-25T00:32:00.496Z,12.8
2023-04-25T00:33:08.820Z,12.8
2023-04-25T00:34:17.082Z,12.8
2023-04-25T00:35:25.624Z,13.6
2023-04-25T00:36:33.955Z,13.6
2023-04-25T00:37:42.270Z,13.6
2023-04-25T00:38:50.801Z,13.8
2023-04-25T00:39:59.146Z,13.8
2023-04-25T00:41:07.506Z,13.8
2023-04-25T00:42:16.000Z,14.1
2023-04-25T00:43:24.327Z,14.1
2023-04-25T00:44:32.679Z,14.1
2023-04-25T00:45:41.220Z,13.3
2023-04-25T00:46:49.572Z,13.3
2023-04-25T00:47:57.906Z,13.3
2023-04-25T00:49:06.434Z,12.8
2023-04-25T00:50:14.754Z,12.8
2023-04-25T00:51:23.102Z,12.8
2023-04-25T00:52:31.635Z,13.2
2023-04-25T00:53:39.967Z,13.2
2023-04-25T00:54:48.303Z,13.2
2023-04-25T00:55:56.853Z,14.2
2023-04-25T00:57:05.212Z,14.2
2023-04-25T00:58:13.532Z,14.2
2023-04-25T00:59:22.073Z,13.9
2023-04-25T01:00:30.390Z,13.9
2023-04-25T01:01:38.727Z,13.9
2023-04-25T01:02:47.345Z,12.9
2023-04-25T01:03:56.065Z,12.9
2023-04-25T01:05:03.978Z,12.9
2023-04-25T01:06:12.505Z,12.9
2023-04-25T01:07:20.850Z,12.9
2023-04-25T01:08:29.212Z,12.9
2023-04-25T01:09:37.750Z,13
2023-04-25T01:10:46.084Z,13
2023-04-25T01:11:54.426Z,13
2023-04-25T01:13:02.992Z,16.200001
2023-04-25T01:14:11.306Z,16.200001
2023-04-25T01:15:19.643Z,16.200001
2023-04-25T01:16:28.186Z,14.8
2023-04-25T01:17:36.543Z,14.8
2023-04-25T01:18:44.866Z,14.8
2023-04-25T01:19:53.407Z,12.4
2023-04-25T01:21:01.724Z,12.4
2023-04-25T01:22:10.050Z,12.4
2023-04-25T01:23:18.594Z,13.8
2023-04-25T01:24:26.950Z,13.8
2023-04-25T01:25:35.277Z,13.8
2023-04-25T01:26:43.812Z,13.9
2023-04-25T01:27:52.139Z,13.9
2023-04-25T01:29:00.504Z,13.9
2023-04-25T01:30:09.034Z,13.1
2023-04-25T01:31:17.371Z,13.1
2023-04-25T01:32:25.721Z,13.1
2023-04-25T01:33:34.278Z,15.5
2023-04-25T01:34:42.591Z,15.5
2023-04-25T01:35:50.934Z,15.5
2023-04-25T01:36:59.474Z,14.4
2023-04-25T01:38:07.839Z,14.4
2023-04-25T01:39:16.148Z,14.4
2023-04-25T01:40:24.688Z,14.5
2023-04-25T01:41:33.080Z,14.5
2023-04-25T01:42:41.401Z,14.5
2023-04-25T01:43:50.097Z,14.7
2023-04-25T01:44:58.290Z,14.7
2023-04-25T01:46:06.633Z,14.7
2023-04-25T01:47:15.146Z,14.2
2023-04-25T01:48:23.483Z,14.2
2023-04-25T01:49:31.808Z,14.2
2023-04-25T01:50:40.348Z,13.4
2023-04-25T01:51:48.681Z,13.4
2023-04-25T01:52:57.028Z,13.4
2023-04-25T01:54:05.574Z,14.1
2023-04-25T01:55:13.920Z,14.1
2023-04-25T01:56:22.226Z,14.1
2023-04-25T01:57:30.778Z,14.1
2023-04-25T01:58:39.107Z,14.1
2023-04-25T01:59:47.448Z,14.1
2023-04-25T02:00:56.011Z,13.1
2023-04-25T02:02:04.320Z,13.1
2023-04-25T02:03:12.712Z,13.1
2023-04-25T02:04:21.236Z,11.8
2023-04-25T02:05:29.529Z,11.8
2023-04-25T02:06:37.859Z,11.8
2023-04-25T02:07:46.409Z,14
2023-04-25T02:08:54.771Z,14
2023-04-25T02:10:03.102Z,14
2023-04-25T02:11:11.646Z,13.8
2023-04-25T02:12:19.975Z,13.8
2023-04-25T02:13:28.314Z,13.8
2023-04-25T02:14:36.864Z,15.1
2023-04-25T02:15:45.255Z,15.1
2023-04-25T02:16:53.614Z,15.1
2023-04-25T02:18:02.105Z,14.5
2023-04-25T02:19:10.409Z,14.5
2023-04-25T02:20:18.746Z,14.5
2023-04-25T02:21:27.284Z,14.9
2023-04-25T02:22:35.651Z,14.9
2023-04-25T02:23:44.012Z,14.9
2023-04-25T02:24:52.545Z,14.2
2023-04-25T02:26:00.901Z,14.2
2023-04-25T02:27:09.233Z,14.2
2023-04-25T02:28:17.900Z,12.1
2023-04-25T02:29:26.209Z,12.1
2023-04-25T02:30:34.530Z,12.1
2023-04-25T02:31:43.087Z,12
2023-04-25T02:32:51.484Z,12
2023-04-25T02:33:59.785Z,12
2023-04-25T02:35:08.294Z,12.4
2023-04-25T02:36:16.643Z,12.4
2023-04-25T02:37:24.977Z,12.4
2023-04-25T02:38:33.513Z,12.3
2023-04-25T02:39:41.850Z,12.3
2023-04-25T02:40:50.186Z,12.3
2023-04-25T02:41:58.724Z,14.1
2023-04-25T02:43:07.083Z,14.1
2023-04-25T02:44:15.403Z,14.1
2023-04-25T02:45:23.942Z,12.3
2023-04-25T02:46:38.812Z,12.3
2023-04-25T02:47:40.619Z,12.3
2023-04-25T02:48:49.163Z,12.8
2023-04-25T02:49:57.472Z,12.8
2023-04-25T02:51:05.825Z,12.8
2023-04-25T02:52:14.368Z,12.6
2023-04-25T02:53:22.695Z,12.6
2023-04-25T02:54:31.021Z,12.6
2023-04-25T02:55:39.568Z,12.6
2023-04-25T02:56:47.896Z,12.6
2023-04-25T02:57:56.247Z,12.6
2023-04-25T02:59:04.762Z,12.5
2023-04-25T03:00:13.094Z,12.5
2023-04-25T03:01:21.516Z,12.5
2023-04-25T03:02:30.070Z,12.3
2023-04-25T03:03:38.397Z,12.3
2023-04-25T03:04:46.758Z,12.3
2023-04-25T03:05:55.185Z,11.8
2023-04-25T03:07:03.529Z,11.8
2023-04-25T03:08:11.870Z,11.8
2023-04-25T03:09:20.411Z,11.1
2023-04-25T03:10:28.756Z,11.1
2023-04-25T03:11:37.072Z,11.1
2023-04-25T03:12:45.617Z,12.2
2023-04-25T03:13:53.955Z,12.2
2023-04-25T03:15:02.280Z,12.2
2023-04-25T03:16:10.889Z,10.8
2023-04-25T03:17:19.176Z,10.8
2023-04-25T03:18:27.511Z,10.8
2023-04-25T03:19:36.035Z,10
2023-04-25T03:20:44.486Z,10
2023-04-25T03:21:52.718Z,10
2023-04-25T03:23:01.274Z,10
2023-04-25T03:24:09.594Z,10
2023-04-25T03:25:17.933Z,10
2023-04-25T03:26:26.478Z,9.1
2023-04-25T03:27:34.814Z,9.1
2023-04-25T03:28:43.150Z,9.1
2023-04-25T03:29:51.687Z,10.1
2023-04-25T03:31:00.025Z,10.1
2023-04-25T03:32:08.413Z,10.1
2023-04-25T03:33:16.892Z,9.5
2023-04-25T03:34:25.225Z,9.5
2023-04-25T03:35:33.541Z,9.5
2023-04-25T03:36:42.098Z,9.1
2023-04-25T03:37:50.733Z,9.1
2023-04-25T03:38:59.149Z,9.1
2023-04-25T03:40:07.711Z,10
2023-04-25T03:41:16.049Z,10
2023-04-25T03:42:24.400Z,10
2023-04-25T03:43:32.951Z,9.5
2023-04-25T03:44:41.265Z,9.5
2023-04-25T03:45:49.695Z,9.5
2023-04-25T03:46:58.200Z,8.8
2023-04-25T03:48:06.626Z,8.8
2023-04-25T03:49:16.491Z,8.8
2023-04-25T03:50:23.458Z,9.2
2023-04-25T03:51:31.811Z,9.2
2023-04-25T03:52:40.170Z,9.2
2023-04-25T03:53:48.847Z,7.9
2023-04-25T03:54:57.063Z,7.9
2023-04-25T03:56:05.398Z,7.9
2023-04-25T03:57:13.959Z,8.7
2023-04-25T03:58:22.292Z,8.7
2023-04-25T03:59:30.624Z,8.7
2023-04-25T04:00:39.186Z,10.9
2023-04-25T04:01:47.534Z,10.9
2023-04-25T04:02:56.008Z,10.9
2023-04-25T04:04:04.629Z,9.5
2023-04-25T04:05:12.904Z,9.5
2023-04-25T04:06:21.092Z,9.5
2023-04-25T04:07:29.654Z,11.5
2023-04-25T04:08:38.026Z,11.5
2023-04-25T04:09:46.322Z,11.5
2023-04-25T04:10:54.860Z,11.7
2023-04-25T04:12:03.207Z,11.7
2023-04-25T04:13:11.553Z,11.7
2023-04-25T04:14:20.116Z,10.3
2023-04-25T04:15:28.450Z,10.3
2023-04-25T04:16:36.808Z,10.3
2023-04-25T04:17:45.357Z,8.7
2023-04-25T04:18:53.686Z,8.7
2023-04-25T04:20:02.026Z,8.7
2023-04-25T04:21:10.568Z,10.4
2023-04-25T04:22:18.944Z,10.4
2023-04-25T04:23:27.256Z,10.4
2023-04-25T04:24:35.839Z,9
2023-04-25T04:25:44.162Z,9
2023-04-25T04:26:52.493Z,9
2023-04-25T04:28:01.051Z,8.8
2023-04-25T04:29:09.388Z,8.8
2023-04-25T04:30:17.728Z,8.8
2023-04-25T04:31:26.288Z,9.5
2023-04-25T04:32:34.671Z,9.5
2023-04-25T04:33:42.954Z,9.5
2023-04-25T04:34:51.515Z,8.4
2023-04-25T04:35:59.867Z,8.4
2023-04-25T04:37:08.255Z,8.4
2023-04-25T04:38:16.793Z,9.7
2023-04-25T04:39:25.102Z,9.7
2023-04-25T04:40:33.469Z,9.7
2023-04-25T04:41:42.007Z,9.5
2023-04-25T04:42:50.355Z,9.5
2023-04-25T04:43:58.675Z,9.5
2023-04-25T04:45:07.236Z,7.9
2023-04-25T04:46:15.602Z,7.9
2023-04-25T04:47:23.943Z,7.9
2023-04-25T04:48:32.454Z,7.2
2023-04-25T04:49:40.799Z,7.2
2023-04-25T04:50:49.141Z,7.2
2023-04-25T04:51:59.626Z,8.4
2023-04-25T04:53:06.036Z,8.4
2023-04-25T04:54:14.357Z,8.4
2023-04-25T04:55:22.907Z,7.9
2023-04-25T04:56:31.268Z,7.9
2023-04-25T04:57:39.598Z,7.9
2023-04-25T04:58:48.136Z,8.9
2023-04-25T04:59:56.488Z,8.9
2023-04-25T05:01:04.871Z,8.9
2023-04-25T05:02:13.392Z,7.6
2023-04-25T05:03:21.842Z,7.6
2023-04-25T05:04:30.075Z,7.6
2023-04-25T05:05:38.571Z,9.2
2023-04-25T05:06:48.890Z,9.2
2023-04-25T05:07:55.286Z,9.2
2023-04-25T05:09:03.820Z,8.9
2023-04-25T05:10:12.175Z,8.9
2023-04-25T05:11:20.533Z,8.9
2023-04-25T05:12:29.116Z,8.8
2023-04-25T05:13:37.424Z,8.8
2023-04-25T05:14:45.798Z,8.8
2023-04-25T05:15:54.305Z,8.1
2023-04-25T05:17:02.782Z,8.1
2023-04-25T05:18:11.026Z,8.1
2023-04-25T05:19:19.519Z,7.9
2023-04-25T05:20:29.230Z,7.9
2023-04-25T05:21:37.582Z,7.9
2023-04-25T05:22:46.142Z,8.1
2023-04-25T05:23:54.468Z,8.1
2023-04-25T05:25:02.807Z,8.1
2023-04-25T05:26:11.342Z,9
2023-04-25T05:27:19.678Z,9
2023-04-25T05:28:28.033Z,9
2023-04-25T05:29:36.552Z,9.2
2023-04-25T05:30:44.892Z,9.2
2023-04-25T05:31:53.302Z,9.2
2023-04-25T05:33:01.846Z,8.5
2023-04-25T05:34:10.135Z,8.5
2023-04-25T05:35:18.483Z,8.5
2023-04-25T05:36:27.031Z,9.7
2023-04-25T05:37:35.366Z,9.7
2023-04-25T05:38:43.687Z,9.7
2023-04-25T05:39:52.241Z,8.9
2023-04-25T05:41:00.614Z,8.9
2023-04-25T05:42:08.939Z,8.9
2023-04-25T05:43:17.464Z,9.7
2023-04-25T05:44:25.824Z,9.7
2023-04-25T05:45:34.178Z,9.7
2023-04-25T05:46:42.700Z,13.2
2023-04-25T05:47:51.172Z,13.2
2023-04-25T05:48:59.400Z,13.2
2023-04-25T05:50:07.953Z,8.7
2023-04-25T05:51:16.291Z,8.7
2023-04-25T05:52:24.623Z,8.7
2023-04-25T05:53:33.176Z,8.4
2023-04-25T05:54:41.500Z,8.4
2023-04-25T05:55:49.830Z,8.4
2023-04-25T05:56:58.388Z,8.2
2023-04-25T05:58:06.748Z,8.2
2023-04-25T05:59:15.065Z,8.2
2023-04-25T06:00:23.662Z,22.799999
2023-04-25T06:01:31.955Z,22.799999
2023-04-25T06:02:40.452Z,22.799999
2023-04-25T06:03:49.073Z,8.8
2023-04-25T06:04:57.414Z,8.8
2023-04-25T06:06:05.673Z,8.8
2023-04-25T06:07:14.112Z,9.3
2023-04-25T06:08:22.468Z,9.3
2023-04-25T06:09:30.797Z,9.3
2023-04-25T06:10:39.378Z,8.7
2023-04-25T06:11:47.696Z,8.7
2023-04-25T06:12:56.030Z,8.7
2023-04-25T06:14:04.600Z,10
2023-04-25T06:15:24.133Z,10
2023-04-25T06:16:21.360Z,10
2023-04-25T06:17:29.842Z,8.2
2023-04-25T06:18:38.153Z,8.2
2023-04-25T06:19:46.480Z,8.2
2023-04-25T06:20:55.050Z,9.8
2023-04-25T06:22:03.381Z,9.8
2023-04-25T06:23:11.733Z,9.8
2023-04-25T06:24:20.250Z,8.6
2023-04-25T06:25:28.644Z,8.6
2023-04-25T06:26:36.961Z,8.6
2023-04-25T06:27:45.537Z,9.1
2023-04-25T06:28:53.890Z,9.1
2023-04-25T06:30:02.253Z,9.1
2023-04-25T06:31:10.842Z,10
2023-04-25T06:32:19.200Z,10
2023-04-25T06:33:27.486Z,10
2023-04-25T06:34:36.032Z,11.1
2023-04-25T06:35:44.431Z,11.1
2023-04-25T06:36:52.753Z,11.1
2023-04-25T06:38:01.288Z,9.2
2023-04-25T06:39:09.621Z,9.2
2023-04-25T06:40:17.974Z,9.2
2023-04-25T06:41:26.520Z,8.6
2023-04-25T06:42:34.850Z,8.6
2023-04-25T06:43:43.192Z,8.6
2023-04-25T06:44:51.730Z,8.2
2023-04-25T06:46:00.085Z,8.2
2023-04-25T06:47:08.501Z,8.2
2023-04-25T06:48:17.017Z,7.3
2023-04-25T06:49:25.346Z,7.3
2023-04-25T06:50:33.667Z,7.3
2023-04-25T06:51:42.212Z,7.6
2023-04-25T06:52:50.556Z,7.6
2023-04-25T06:53:58.920Z,7.6
2023-04-25T06:55:07.444Z,8.1
2023-04-25T06:56:15.770Z,8.1
2023-04-25T06:57:24.101Z,8.1
2023-04-25T06:58:32.638Z,8.2
2023-04-25T06:59:40.985Z,8.2
2023-04-25T07:00:49.352Z,8.2
2023-04-25T07:01:57.906Z,7.9
2023-04-25T07:03:06.341Z,7.9
2023-04-25T07:04:14.992Z,7.9
2023-04-25T07:05:23.154Z,8.1
2023-04-25T07:06:31.489Z,8.1
2023-04-25T07:07:39.830Z,8.1
2023-04-25T07:08:48.525Z,8.9
2023-04-25T07:09:56.734Z,8.9
2023-04-25T07:11:05.111Z,8.9
2023-04-25T07:12:13.630Z,7.5
2023-04-25T07:13:22.005Z,7.5
2023-04-25T07:14:30.317Z,7.5
2023-04-25T07:15:38.851Z,6.7
2023-04-25T07:16:47.233Z,6.7
2023-04-25T07:17:55.555Z,6.7
2023-04-25T07:19:04.074Z,8.7
2023-04-25T07:20:12.464Z,8.7
2023-04-25T07:21:20.773Z,8.7
2023-04-25T07:22:29.320Z,9.5
2023-04-25T07:23:37.647Z,9.5
2023-04-25T07:24:46.320Z,9.5
2023-04-25T07:25:54.874Z,8.4
2023-04-25T07:27:03.203Z,8.4
2023-04-25T07:28:11.563Z,8.4
2023-04-25T07:29:20.104Z,7.8
2023-04-25T07:30:28.412Z,7.8
2023-04-25T07:31:36.766Z,7.8
2023-04-25T07:32:45.327Z,6.2
2023-04-25T07:33:53.653Z,6.2
2023-04-25T07:35:01.988Z,6.2
2023-04-25T07:36:10.572Z,6.8
2023-04-25T07:37:18.870Z,6.8
2023-04-25T07:38:27.213Z,6.8
2023-04-25T07:39:35.759Z,8.9
2023-04-25T07:40:44.101Z,8.9
2023-04-25T07:41:54.569Z,8.9
2023-04-25T07:43:01.009Z,7.2
2023-04-25T07:44:09.341Z,7.2
2023-04-25T07:45:17.710Z,7.2
2023-04-25T07:46:26.315Z,8.8
2023-04-25T07:47:34.620Z,8.8
2023-04-25T07:48:42.926Z,8.8
2023-04-25T07:49:51.517Z,7.4
2023-04-25T07:50:59.834Z,7.4
2023-04-25T07:52:08.188Z,7.4
2023-04-25T07:53:16.701Z,6.8
2023-04-25T07:54:25.044Z,6.8
2023-04-25T07:55:33.426Z,6.8
2023-04-25T07:56:51.873Z,9
2023-04-25T07:57:50.280Z,9
2023-04-25T07:58:58.622Z,9
2023-04-25T08:00:07.158Z,6.8
2023-04-25T08:01:15.496Z,6.8
2023-04-25T08:02:23.875Z,6.8
2023-04-25T08:03:32.603Z,5
2023-04-25T08:04:40.872Z,5
2023-04-25T08:05:49.284Z,5
2023-04-25T08:06:57.625Z,6.4
2023-04-25T08:08:05.961Z,6.4
2023-04-25T08:09:14.283Z,6.4
2023-04-25T08:10:22.850Z,8
2023-04-25T08:11:31.149Z,8
2023-04-25T08:12:39.489Z,8
2023-04-25T08:13:48.033Z,6.2
2023-04-25T08:14:56.384Z,6.2
2023-04-25T08:16:04.772Z,6.2
2023-04-25T08:17:13.266Z,7.7
2023-04-25T08:18:21.651Z,7.7
2023-04-25T08:19:29.931Z,7.7
2023-04-25T08:20:38.470Z,6.1
2023-04-25T08:21:46.807Z,6.1
2023-04-25T08:22:55.142Z,6.1
2023-04-25T08:24:03.729Z,5.2
2023-04-25T08:25:12.061Z,5.2
2023-04-25T08:26:20.376Z,5.2
2023-04-25T08:27:28.916Z,5.4
2023-04-25T08:28:37.267Z,5.4
2023-04-25T08:29:45.593Z,5.4
2023-04-25T08:30:54.206Z,3.6
2023-04-25T08:32:02.465Z,3.6
2023-04-25T08:33:10.797Z,3.6
2023-04-25T08:34:19.367Z,4.8
2023-04-25T08:35:27.712Z,4.8
2023-04-25T08:36:39.539Z,4.8
2023-04-25T08:37:44.593Z,4.4
2023-04-25T08:38:55.271Z,4.4
2023-04-25T08:40:01.354Z,4.4
2023-04-25T08:41:09.824Z,3.9
2023-04-25T08:42:18.173Z,3.9
2023-04-25T08:43:26.528Z,3.9
2023-04-25T08:44:35.084Z,4.3
2023-04-25T08:45:43.686Z,4.3
2023-04-25T08:46:51.793Z,4.3
2023-04-25T08:48:00.419Z,5.8
2023-04-25T08:49:08.665Z,5.8
2023-04-25T08:50:17.026Z,5.8
2023-04-25T08:51:25.576Z,6.5
2023-04-25T08:52:33.900Z,6.5
2023-04-25T08:53:43.378Z,6.5
2023-04-25T08:54:50.792Z,6.4
2023-04-25T08:55:59.132Z,6.4
2023-04-25T08:57:07.443Z,6.4
2023-04-25T08:58:16.009Z,5.8
2023-04-25T08:59:24.343Z,5.8
2023-04-25T09:00:32.707Z,5.8
2023-04-25T09:01:41.335Z,5.2
2023-04-25T09:02:49.752Z,5.2
2023-04-25T09:03:58.008Z,5.2
2023-04-25T09:05:06.481Z,5.4
2023-04-25T09:06:14.804Z,5.4
2023-04-25T09:07:23.138Z,5.4
2023-04-25T09:08:31.712Z,4.5
2023-04-25T09:09:40.057Z,4.5
2023-04-25T09:10:48.393Z,4.5
2023-04-25T09:11:56.961Z,4.3
2023-04-25T09:13:05.294Z,4.3
2023-04-25T09:14:13.650Z,4.3
2023-04-25T09:15:22.201Z,5.9
2023-04-25T09:16:30.577Z,5.9
2023-04-25T09:17:38.930Z,5.9
2023-04-25T09:18:49.034Z,3.8
2023-04-25T09:19:55.786Z,3.8
2023-04-25T09:21:07.625Z,3.8
2023-04-25T09:22:12.658Z,3.4
2023-04-25T09:23:21.002Z,3.4
2023-04-25T09:24:29.333Z,3.4
2023-04-25T09:25:37.905Z,3.8
2023-04-25T09:26:46.253Z,3.8
2023-04-25T09:27:54.621Z,3.8
2023-04-25T09:29:03.119Z,2.4
2023-04-25T09:30:11.461Z,2.4
2023-04-25T09:31:19.823Z,2.4
2023-04-25T09:32:28.520Z,3.7
2023-04-25T09:33:36.720Z,3.7
2023-04-25T09:34:45.061Z,3.7
2023-04-25T09:35:53.610Z,6.1
2023-04-25T09:37:01.966Z,6.1
2023-04-25T09:38:10.318Z,6.1
2023-04-25T09:39:18.855Z,5
2023-04-25T09:40:27.217Z,5
2023-04-25T09:41:35.532Z,5
2023-04-25T09:42:44.099Z,5.6
2023-04-25T09:43:52.503Z,5.6
2023-04-25T09:45:00.749Z,5.6
2023-04-25T09:46:09.341Z,4.6
2023-04-25T09:47:17.627Z,4.6
2023-04-25T09:48:25.998Z,4.6
2023-04-25T09:49:34.520Z,4.1
2023-04-25T09:50:42.847Z,4.1
2023-04-25T09:51:51.193Z,4.1
2023-04-25T09:52:59.750Z,4.7
2023-04-25T09:54:08.099Z,4.7
2023-04-25T09:55:16.442Z,4.7
2023-04-25T09:56:24.972Z,4.9
2023-04-25T09:57:33.311Z,4.9
2023-04-25T09:58:41.638Z,4.9
2023-04-25T09:59:50.220Z,6.5
2023-04-25T10:00:58.559Z,6.5
2023-04-25T10:02:06.873Z,6.5
2023-04-25T10:03:15.530Z,4.8
2023-04-25T10:04:23.877Z,4.8
2023-04-25T10:05:32.092Z,4.8
2023-04-25T10:06:40.637Z,6.1
2023-04-25T10:07:48.982Z,6.1
2023-04-25T10:08:57.311Z,6.1
2023-04-25T10:10:05.873Z,4.6
2023-04-25T10:11:14.186Z,4.6
2023-04-25T10:12:22.555Z,4.6
2023-04-25T10:13:31.100Z,4.5
2023-04-25T10:14:39.433Z,4.5
2023-04-25T10:15:47.850Z,4.5
2023-04-25T10:16:56.318Z,3.4
2023-04-25T10:18:04.711Z,3.4
2023-04-25T10:19:12.999Z,3.4
2023-04-25T10:20:21.531Z,3.6
2023-04-25T10:21:29.860Z,3.6
2023-04-25T10:22:38.221Z,3.6
2023-04-25T10:23:46.776Z,4.2
2023-04-25T10:24:55.118Z,4.2
2023-04-25T10:26:03.432Z,4.2
2023-04-25T10:27:12.033Z,4.5
2023-04-25T10:28:20.360Z,4.5
2023-04-25T10:29:28.693Z,4.5
2023-04-25T10:30:37.236Z,4.8
2023-04-25T10:31:45.609Z,4.8
2023-04-25T10:32:53.920Z,4.8
2023-04-25T10:34:02.483Z,4.9
2023-04-25T10:35:10.807Z,4.9
2023-04-25T10:36:19.141Z,4.9
2023-04-25T10:37:27.688Z,4.3
2023-04-25T10:38:36.012Z,4.3
2023-04-25T10:39:44.969Z,4.3
2023-04-25T10:40:53.500Z,5.2
2023-04-25T10:42:01.844Z,5.2
2023-04-25T10:43:10.186Z,5.2
2023-04-25T10:44:18.725Z,6.5
2023-04-25T10:45:27.194Z,6.5
2023-04-25T10:46:35.595Z,6.5
2023-04-25T10:47:44.189Z,4.3
2023-04-25T10:48:52.439Z,4.3
2023-04-25T10:50:00.772Z,4.3
2023-04-25T10:51:09.314Z,5.5
2023-04-25T10:52:17.646Z,5.5
2023-04-25T10:53:25.981Z,5.5
2023-04-25T10:54:34.538Z,4.8
2023-04-25T10:55:42.883Z,4.8
2023-04-25T10:56:51.217Z,4.8
2023-04-25T10:57:59.889Z,5.2
2023-04-25T10:59:08.126Z,5.2
2023-04-25T11:00:16.556Z,5.2
2023-04-25T11:01:25.091Z,4.5
2023-04-25T11:02:33.461Z,4.5
2023-04-25T11:03:41.845Z,4.5
2023-04-25T11:04:50.302Z,5.6
2023-04-25T11:05:58.682Z,5.6
2023-04-25T11:07:07.915Z,5.6
2023-04-25T11:08:15.502Z,6.5
2023-04-25T11:09:23.841Z,6.5
2023-04-25T11:10:32.178Z,6.5
2023-04-25T11:11:40.728Z,5
2023-04-25T11:12:49.070Z,5
2023-04-25T11:13:57.431Z,5
2023-04-25T11:15:05.992Z,5.4
2023-04-25T11:16:23.518Z,5.4
2023-04-25T11:17:22.761Z,5.4
2023-04-25T11:18:31.256Z,4.7
2023-04-25T11:19:39.597Z,4.7
2023-04-25T11:20:47.985Z,4.7
2023-04-25T11:21:56.456Z,4.3
2023-04-25T11:24:13.142Z,4.3
2023-04-25T11:25:21.687Z,4.3
2023-04-25T11:26:30.008Z,4.3
2023-04-25T11:27:38.366Z,4.3
2023-04-25T11:28:46.895Z,4.2
2023-04-25T11:29:55.239Z,4.2
2023-04-25T11:31:03.574Z,4.2
2023-04-25T11:32:12.190Z,4.4
2023-04-25T11:33:20.515Z,4.4
2023-04-25T11:34:28.792Z,4.4
2023-04-25T11:35:37.369Z,3.4
2023-04-25T11:36:45.694Z,3.4
2023-04-25T11:37:54.031Z,3.4
2023-04-25T11:39:02.565Z,3.9
2023-04-25T11:40:10.918Z,3.9
2023-04-25T11:41:19.273Z,3.9
2023-04-25T11:42:27.830Z,3.2
2023-04-25T11:43:36.146Z,3.2
2023-04-25T11:44:44.759Z,3.2
2023-04-25T11:45:53.330Z,2.8
2023-04-25T11:47:01.634Z,2.8
2023-04-25T11:48:09.980Z,2.8
2023-04-25T11:49:18.503Z,2.1
2023-04-25T11:50:26.830Z,2.1
2023-04-25T11:51:35.317Z,2.1
2023-04-25T11:52:43.728Z,2.8
2023-04-25T11:53:52.083Z,2.8
2023-04-25T11:55:00.425Z,2.8
2023-04-25T11:56:08.969Z,3.4
2023-04-25T11:57:17.291Z,3.4
2023-04-25T11:58:25.622Z,3.4
2023-04-25T11:59:34.175Z,2.7
2023-04-25T12:00:42.504Z,2.7
2023-04-25T12:01:50.843Z,2.7
2023-04-25T12:02:59.561Z,3.6
2023-04-25T12:04:07.843Z,3.6
2023-04-25T12:05:29.919Z,3.6
2023-04-25T12:06:26.361Z,4.6
2023-04-25T12:07:32.974Z,4.6
2023-04-25T12:08:41.302Z,4.6
2023-04-25T12:09:49.838Z,5
2023-04-25T12:10:58.171Z,5
2023-04-25T12:12:06.529Z,5
2023-04-25T12:13:15.052Z,5
2023-04-25T12:14:23.376Z,5
2023-04-25T12:15:31.722Z,5
2023-04-25T12:16:40.439Z,4.7
2023-04-25T12:17:48.689Z,4.7
2023-04-25T12:18:56.974Z,4.7
2023-04-25T12:20:05.544Z,4
2023-04-25T12:21:13.841Z,4
2023-04-25T12:22:22.199Z,4
2023-04-25T12:23:30.781Z,7
2023-04-25T12:24:39.580Z,7
2023-04-25T12:25:47.494Z,7
2023-04-25T12:26:56.048Z,4.3
2023-04-25T12:28:04.384Z,4.3
2023-04-25T12:29:12.735Z,4.3
2023-04-25T12:30:21.282Z,6.1
2023-04-25T12:31:29.677Z,6.1
2023-04-25T12:32:38.006Z,6.1
2023-04-25T12:33:46.515Z,4.6
2023-04-25T12:34:54.873Z,4.6
2023-04-25T12:36:04.457Z,4.6
2023-04-25T12:37:11.745Z,5.9
2023-04-25T12:38:20.056Z,5.9
2023-04-25T12:39:28.426Z,5.9
2023-04-25T12:40:36.957Z,6.5
2023-04-25T12:41:45.307Z,6.5
2023-04-25T12:42:53.638Z,6.5
2023-04-25T12:44:02.208Z,5.1
2023-04-25T12:45:10.744Z,5.1
2023-04-25T12:46:19.105Z,5.1
2023-04-25T12:47:27.653Z,4.8
2023-04-25T12:48:35.980Z,4.8
2023-04-25T12:49:44.356Z,4.8
2023-04-25T12:50:52.892Z,4.7
2023-04-25T12:52:01.205Z,4.7
2023-04-25T12:53:09.546Z,4.7
2023-04-25T12:54:18.063Z,6
2023-04-25T12:55:26.482Z,6
2023-04-25T12:56:34.728Z,6
2023-04-25T12:57:43.279Z,4.4
2023-04-25T12:58:52.010Z,4.4
2023-04-25T12:59:59.954Z,4.4
2023-04-25T13:01:08.542Z,5.1
2023-04-25T13:02:16.891Z,5.1
2023-04-25T13:03:25.324Z,5.1
2023-04-25T13:04:33.903Z,7.1
2023-04-25T13:05:42.337Z,7.1
2023-04-25T13:06:50.587Z,7.1
2023-04-25T13:07:59.173Z,6.7
2023-04-25T13:09:07.512Z,6.7
2023-04-25T13:10:15.881Z,6.7
2023-04-25T13:11:24.587Z,4.2
2023-04-25T13:12:32.832Z,4.2
2023-04-25T13:13:41.176Z,4.2
2023-04-25T13:14:49.748Z,6.9
2023-04-25T13:15:58.127Z,6.9
2023-04-25T13:17:06.541Z,6.9
2023-04-25T13:18:15.047Z,6.6
2023-04-25T13:19:23.415Z,6.6
2023-04-25T13:20:31.773Z,6.6
2023-04-25T13:21:40.374Z,5.6
2023-04-25T13:22:48.720Z,5.6
2023-04-25T13:23:57.088Z,5.6
2023-04-25T13:25:05.640Z,5.7
2023-04-25T13:26:14.032Z,5.7
2023-04-25T13:27:22.425Z,5.7
2023-04-25T13:28:30.977Z,7.8
2023-04-25T13:29:39.390Z,7.8
2023-04-25T13:30:47.769Z,7.8
2023-04-25T13:31:56.368Z,8.3
2023-04-25T13:33:04.758Z,8.3
2023-04-25T13:34:13.104Z,8.3
2023-04-25T13:35:21.693Z,10
2023-04-25T13:36:30.124Z,10
2023-04-25T13:37:38.551Z,10
2023-04-25T13:38:47.091Z,7.3
2023-04-25T13:39:55.434Z,7.3
2023-04-25T13:41:03.809Z,7.3
2023-04-25T13:42:12.376Z,6.1
2023-04-25T13:43:20.778Z,6.1
2023-04-25T13:44:29.080Z,6.1
2023-04-25T13:45:37.722Z,6.5
2023-04-25T13:46:47.613Z,6.5
2023-04-25T13:47:54.405Z,6.5
2023-04-25T13:49:10.262Z,7.1
2023-04-25T13:50:11.346Z,7.1
2023-04-25T13:51:19.766Z,7.1
2023-04-25T13:52:28.428Z,6.5
2023-04-25T13:53:36.673Z,6.5
2023-04-25T13:54:45.043Z,6.5
2023-04-25T13:55:53.636Z,8.6
2023-04-25T13:57:01.997Z,8.6
2023-04-25T13:58:10.336Z,8.6
2023-04-25T13:59:18.952Z,5.8
2023-04-25T14:00:27.309Z,5.8
2023-04-25T14:01:35.700Z,5.8
2023-04-25T14:02:44.247Z,5.5
2023-04-25T14:03:52.790Z,5.5
2023-04-25T14:05:00.955Z,5.5
2023-04-25T14:06:09.570Z,7.1
2023-04-25T14:07:17.916Z,7.1
2023-04-25T14:08:26.313Z,7.1
2023-04-25T14:09:34.886Z,8.9
2023-04-25T14:10:43.269Z,8.9
2023-04-25T14:11:51.648Z,8.9
2023-04-25T14:13:00.211Z,7.4
2023-04-25T14:14:08.612Z,7.4
2023-04-25T14:15:17.038Z,7.4
2023-04-25T14:16:25.721Z,7.1
2023-04-25T14:17:33.971Z,7.1
2023-04-25T14:18:42.292Z,7.1
2023-04-25T14:19:50.893Z,7.3
2023-04-25T14:20:59.317Z,7.3
2023-04-25T14:22:07.706Z,7.3
2023-04-25T14:23:16.298Z,7.3
2023-04-25T14:24:24.679Z,7.3
2023-04-25T14:25:33.066Z,7.3
2023-04-25T14:26:41.643Z,7.5
2023-04-25T14:27:50.091Z,7.5
2023-04-25T14:28:58.455Z,7.5
2023-04-25T14:30:07.020Z,8.6
2023-04-25T14:31:15.474Z,8.6
2023-04-25T14:32:23.767Z,8.6
2023-04-25T14:33:32.366Z,8.7
2023-04-25T14:34:40.706Z,8.7
2023-04-25T14:35:49.178Z,8.7
2023-04-25T14:36:57.636Z,8.7
2023-04-25T14:38:06.012Z,8.7
2023-04-25T14:39:14.366Z,8.7
2023-04-25T14:40:22.953Z,10.2
2023-04-25T14:41:31.330Z,10.2
2023-04-25T14:42:39.725Z,10.2
2023-04-25T14:43:48.305Z,5.7
2023-04-25T14:44:56.961Z,5.7
2023-04-25T14:46:05.236Z,5.7
2023-04-25T14:47:13.817Z,8.4
2023-04-25T14:48:22.325Z,8.4
2023-04-25T14:49:30.706Z,8.4
2023-04-25T14:50:39.216Z,8.8
2023-04-25T14:51:48.780Z,8.8
2023-04-25T14:52:55.994Z,8.8
2023-04-25T14:54:04.545Z,10.4
2023-04-25T14:55:12.917Z,10.4
2023-04-25T14:56:21.380Z,10.4
2023-04-25T14:57:29.865Z,8.2
2023-04-25T14:58:38.230Z,8.2
2023-04-25T14:59:46.616Z,8.2
2023-04-25T15:00:55.186Z,10
2023-04-25T15:02:03.592Z,10
2023-04-25T15:03:12.063Z,10
2023-04-25T15:04:20.532Z,9.7
2023-04-25T15:38:11.014Z,0
2023-04-25T15:39:19.283Z,0
2023-04-25T15:40:27.657Z,0
2023-04-25T15:41:36.208Z,8.7
2023-04-25T15:42:44.593Z,8.7
2023-04-25T15:43:53.171Z,8.7
2023-04-25T15:45:01.537Z,10.5
2023-04-25T15:46:09.950Z,10.5
2023-04-25T15:47:18.269Z,10.5
2023-04-25T15:48:26.860Z,5.8
2023-04-25T15:49:35.247Z,5.8
2023-04-25T15:50:43.619Z,5.8
2023-04-25T15:51:52.190Z,10.4
2023-04-25T15:53:00.537Z,10.4
2023-04-25T15:54:08.943Z,10.4
2023-04-25T15:55:17.514Z,8
2023-04-25T15:56:25.846Z,8
2023-04-25T15:57:34.248Z,8
2023-04-25T15:58:42.790Z,9.4
2023-04-25T15:59:51.164Z,9.4
2023-04-25T16:00:59.526Z,9.4
2023-04-25T16:02:08.113Z,8.8
2023-04-25T16:03:16.507Z,8.8
2023-04-25T16:04:24.937Z,8.8
2023-04-25T16:05:33.418Z,9
2023-04-25T16:06:41.779Z,9
2023-04-25T16:07:50.131Z,9
2023-04-25T16:08:58.704Z,7.2
2023-04-25T16:10:07.096Z,7.2
2023-04-25T16:11:15.422Z,7.2